Terminal Aerodrome Forecast
Issued by NWS North Platte, NE

Home | Current Version | Previous Version | Text Only | Print | Product List | Glossary On
Versions: 1 2 3 4 5 6 7 8 9 10 11 12 13 14 15 16 17 18 19 20 21 22 23
000
FTUS43 KLBF 100700 AAA
TAFLBF
TAF AMD
KLBF 100734Z 1008/1106 15016G23KT P6SM FEW050 SCT200
     FM101100 11004KT 5SM BR SCT200
     FM101400 15011KT P6SM SCT200
     FM110000 15012KT P6SM SCT080 BKN120 PROB30 1101/1105 5SM TSRA
      BKN070CB=

USA.gov is the U.S. government's official web portal to all federal, state and local government web resources and services.